createdAt,value
2023-04-16T00:01:06.273Z,8.90
2023-04-16T00:03:33.671Z,8.90
2023-04-16T00:06:00.971Z,9.00
2023-04-16T00:08:27.766Z,9.00
2023-04-16T00:10:54.871Z,9.00
2023-04-16T00:13:22.552Z,9.00
2023-04-16T00:15:52.290Z,9.00
2023-04-16T00:18:21.097Z,9.00
2023-04-16T00:20:49.238Z,9.00
2023-04-16T00:23:16.912Z,9.00
2023-04-16T00:25:43.805Z,9.00
2023-04-16T00:28:11.196Z,9.00
2023-04-16T00:30:38.192Z,9.00
2023-04-16T00:33:05.383Z,9.00
2023-04-16T00:35:32.242Z,9.00
2023-04-16T00:37:59.273Z,9.00
2023-04-16T00:40:29.893Z,9.00
2023-04-16T00:42:56.889Z,9.00
2023-04-16T00:45:23.951Z,9.00
2023-04-16T00:47:51.108Z,9.00
2023-04-16T00:50:18.500Z,9.00
2023-04-16T00:52:50.140Z,9.00
2023-04-16T00:55:18.857Z,9.00
2023-04-16T00:57:46.119Z,9.00
2023-04-16T01:00:14.277Z,9.00
2023-04-16T01:02:41.831Z,9.00
2023-04-16T01:05:09.285Z,9.00
2023-04-16T01:07:36.166Z,9.00
2023-04-16T01:10:04.068Z,9.00
2023-04-16T01:12:31.166Z,9.00
2023-04-16T01:14:58.132Z,9.00
2023-04-16T01:17:24.997Z,9.00
2023-04-16T01:19:51.831Z,9.00
2023-04-16T01:22:18.897Z,9.00
2023-04-16T01:24:46.073Z,9.00
2023-04-16T01:27:12.933Z,9.00
2023-04-16T01:29:39.843Z,9.00
2023-04-16T01:32:07.235Z,9.00
2023-04-16T01:34:36.809Z,9.00
2023-04-16T01:37:05.162Z,9.00
2023-04-16T01:39:32.077Z,9.00
2023-04-16T01:41:58.892Z,9.00
2023-04-16T01:44:26.336Z,9.00
2023-04-16T01:46:53.500Z,9.00
2023-04-16T01:49:22.400Z,9.00
2023-04-16T01:51:49.523Z,9.00
2023-04-16T01:54:16.403Z,9.00
2023-04-16T01:56:43.347Z,9.00
2023-04-16T01:59:10.820Z,9.00
2023-04-16T02:01:42.100Z,9.00
2023-04-16T02:04:10.320Z,9.00
2023-04-16T02:06:37.960Z,9.00
2023-04-16T02:09:04.794Z,9.00
2023-04-16T02:11:32.282Z,9.00
2023-04-16T02:13:59.427Z,9.00
2023-04-16T02:16:26.410Z,9.10
2023-04-16T02:18:58.856Z,9.00
2023-04-16T02:21:28.456Z,9.00
2023-04-16T02:23:55.628Z,9.00
2023-04-16T02:26:27.167Z,9.00
2023-04-16T02:28:56.539Z,9.10
2023-04-16T02:31:28.696Z,9.10
2023-04-16T02:33:56.645Z,9.00
2023-04-16T02:36:26.643Z,9.10
2023-04-16T02:38:55.936Z,9.10
2023-04-16T02:41:22.859Z,9.10
2023-04-16T02:43:49.825Z,9.10
2023-04-16T02:46:16.802Z,9.10
2023-04-16T02:48:43.724Z,9.10
2023-04-16T02:51:10.976Z,9.10
2023-04-16T02:53:37.859Z,9.10
2023-04-16T02:56:05.070Z,9.10
2023-04-16T02:58:33.087Z,9.10
2023-04-16T03:00:59.885Z,9.00
2023-04-16T03:03:26.840Z,9.10
2023-04-16T03:05:53.713Z,9.10
2023-04-16T03:08:20.703Z,9.00
2023-04-16T03:10:47.654Z,9.10
2023-04-16T03:13:15.344Z,9.10
2023-04-16T03:15:49.805Z,9.10
2023-04-16T03:18:16.847Z,9.10
2023-04-16T03:20:43.817Z,9.10
2023-04-16T03:23:11.819Z,9.10
2023-04-16T03:25:40.485Z,9.10
2023-04-16T03:28:08.609Z,9.10
2023-04-16T03:30:35.865Z,9.10
2023-04-16T03:33:03.875Z,9.10
2023-04-16T03:35:31.225Z,9.10
2023-04-16T03:37:58.081Z,9.10
2023-04-16T03:40:24.982Z,9.10
2023-04-16T03:42:55.602Z,9.10
2023-04-16T03:45:22.566Z,9.10
2023-04-16T03:47:53.006Z,9.10
2023-04-16T03:50:22.807Z,9.10
2023-04-16T03:52:49.578Z,9.10
2023-04-16T03:55:17.511Z,9.10
2023-04-16T03:57:44.839Z,9.10
2023-04-16T04:00:14.271Z,9.10
2023-04-16T04:03:01.032Z,9.10
2023-04-16T04:05:28.070Z,9.10
2023-04-16T04:07:54.967Z,9.20
2023-04-16T04:10:21.854Z,9.20
2023-04-16T04:12:48.657Z,9.20
2023-04-16T04:15:15.812Z,9.20
2023-04-16T04:17:42.810Z,9.20
2023-04-16T04:20:10.672Z,9.20
2023-04-16T04:22:37.564Z,9.10
2023-04-16T04:25:04.782Z,9.20
2023-04-16T04:27:32.971Z,9.20
2023-04-16T04:29:59.893Z,9.20
2023-04-16T04:32:27.648Z,9.20
2023-04-16T04:34:54.533Z,9.20
2023-04-16T04:37:21.452Z,9.20
2023-04-16T04:39:48.406Z,9.20
2023-04-16T04:42:18.905Z,9.20
2023-04-16T04:44:46.583Z,9.20
2023-04-16T04:47:15.111Z,9.20
2023-04-16T04:49:42.013Z,9.20
2023-04-16T04:52:09.073Z,9.20
2023-04-16T04:54:36.026Z,9.20
2023-04-16T04:57:02.953Z,9.20
2023-04-16T04:59:30.718Z,9.20
2023-04-16T05:01:57.720Z,9.20
2023-04-16T05:04:24.649Z,9.30
2023-04-16T05:06:51.885Z,9.30
2023-04-16T05:09:18.700Z,9.20
2023-04-16T05:11:45.739Z,9.20
2023-04-16T05:14:12.669Z,9.30
2023-04-16T05:16:39.797Z,9.20
2023-04-16T05:19:07.162Z,9.30
2023-04-16T05:21:34.297Z,9.30
2023-04-16T05:24:01.086Z,9.30
2023-04-16T05:26:27.960Z,9.30
2023-04-16T05:28:54.879Z,9.30
2023-04-16T05:31:22.214Z,9.30
2023-04-16T05:33:49.119Z,9.30
2023-04-16T05:36:16.925Z,9.30
2023-04-16T05:38:43.837Z,9.30
2023-04-16T05:41:13.236Z,9.30
2023-04-16T05:43:40.362Z,9.30
2023-04-16T05:46:07.984Z,9.30
2023-04-16T05:48:35.175Z,9.30
2023-04-16T05:51:02.683Z,9.30
2023-04-16T05:53:29.442Z,9.30
2023-04-16T05:55:56.202Z,9.30
2023-04-16T05:58:24.943Z,9.30
2023-04-16T06:00:53.166Z,9.30
2023-04-16T06:03:20.235Z,9.30
2023-04-16T06:05:49.887Z,9.30
2023-04-16T06:08:16.924Z,9.30
2023-04-16T06:10:46.669Z,9.30
2023-04-16T06:13:13.922Z,9.30
2023-04-16T06:15:40.885Z,9.30
2023-04-16T06:18:07.818Z,9.30
2023-04-16T06:20:34.736Z,9.40
2023-04-16T06:23:02.814Z,9.30
2023-04-16T06:25:30.302Z,9.40
2023-04-16T06:27:57.701Z,9.40
2023-04-16T06:30:25.215Z,9.40
2023-04-16T06:32:55.411Z,9.30
2023-04-16T06:35:22.500Z,9.40
2023-04-16T06:37:49.652Z,9.30
2023-04-16T06:40:16.839Z,9.40
2023-04-16T06:42:45.565Z,9.40
2023-04-16T06:45:15.292Z,9.40
2023-04-16T06:47:42.729Z,9.50
2023-04-16T06:50:11.368Z,9.50
2023-04-16T06:55:34.946Z,9.50
2023-04-16T06:58:02.248Z,9.50
2023-04-16T07:00:29.824Z,9.60
2023-04-16T07:02:58.711Z,9.60
2023-04-16T07:05:27.166Z,9.60
2023-04-16T07:07:57.636Z,9.60
2023-04-16T07:10:25.694Z,9.70
2023-04-16T07:12:53.009Z,9.70
2023-04-16T07:15:20.306Z,9.70
2023-04-16T07:17:47.269Z,9.70
2023-04-16T07:20:14.792Z,9.70
2023-04-16T07:22:41.845Z,9.70
2023-04-16T07:25:09.614Z,9.80
2023-04-16T07:27:36.489Z,9.80
2023-04-16T07:30:03.914Z,9.80
2023-04-16T07:32:31.076Z,9.90
2023-04-16T07:34:58.186Z,9.90
2023-04-16T07:37:25.369Z,9.90
2023-04-16T07:39:53.175Z,10.00
2023-04-16T07:42:21.070Z,10.10
2023-04-16T07:44:48.255Z,10.10
2023-04-16T07:47:15.569Z,10.10
2023-04-16T07:49:46.263Z,10.20
2023-04-16T07:52:14.029Z,10.20
2023-04-16T07:54:45.104Z,10.20
2023-04-16T07:57:16.329Z,10.30
2023-04-16T07:59:46.836Z,10.40
2023-04-16T08:02:26.925Z,10.50
2023-04-16T08:05:03.327Z,10.60
2023-04-16T08:07:32.250Z,10.60
2023-04-16T08:10:01.844Z,10.60
2023-04-16T08:12:33.346Z,10.70
2023-04-16T08:15:03.167Z,10.60
2023-04-16T08:17:32.898Z,10.60
2023-04-16T08:20:06.688Z,10.60
2023-04-16T08:22:40.183Z,10.60
2023-04-16T08:25:13.441Z,10.70
2023-04-16T08:27:40.796Z,10.90
2023-04-16T08:30:11.342Z,11.00
2023-04-16T08:32:49.420Z,11.20
2023-04-16T08:35:19.870Z,11.30
2023-04-16T08:37:46.968Z,11.50
2023-04-16T08:40:18.806Z,11.60
2023-04-16T08:43:00.545Z,11.60
2023-04-16T08:45:29.006Z,11.60
2023-04-16T08:48:05.818Z,11.70
2023-04-16T08:50:37.764Z,11.80
2023-04-16T08:53:09.823Z,11.80
2023-04-16T08:56:00.293Z,11.80
2023-04-16T08:58:36.919Z,11.80
2023-04-16T09:01:04.688Z,11.80
2023-04-16T09:03:36.199Z,11.90
2023-04-16T09:06:07.335Z,11.90
2023-04-16T09:08:36.171Z,11.90
2023-04-16T09:11:04.694Z,11.90
2023-04-16T09:13:32.327Z,11.80
2023-04-16T09:16:00.970Z,11.80
2023-04-16T09:18:28.387Z,11.80
2023-04-16T09:20:57.080Z,11.90
2023-04-16T09:23:24.994Z,11.90
2023-04-16T09:25:51.833Z,12.00
2023-04-16T09:28:46.901Z,12.10
2023-04-16T09:31:18.345Z,12.20
2023-04-16T09:34:03.595Z,12.30
2023-04-16T09:36:32.626Z,12.40
2023-04-16T09:39:02.017Z,12.50
2023-04-16T09:41:35.855Z,12.60
2023-04-16T09:44:05.078Z,12.70
2023-04-16T09:46:35.647Z,12.80
2023-04-16T09:49:18.811Z,12.90
2023-04-16T09:51:49.622Z,13.00
2023-04-16T09:54:16.620Z,13.10
2023-04-16T09:56:46.263Z,13.10
2023-04-16T09:59:40.119Z,13.20
2023-04-16T10:02:16.092Z,13.20
2023-04-16T10:04:54.075Z,13.30
2023-04-16T10:07:22.169Z,13.30
2023-04-16T10:09:50.093Z,13.40
2023-04-16T10:12:16.989Z,13.50
2023-04-16T10:14:44.087Z,13.60
2023-04-16T10:17:11.456Z,13.70
2023-04-16T10:19:39.339Z,13.70
2023-04-16T10:22:06.200Z,13.70
2023-04-16T10:24:34.864Z,13.80
2023-04-16T10:27:02.514Z,13.80
2023-04-16T10:29:31.678Z,13.80
2023-04-16T10:31:59.727Z,13.90
2023-04-16T10:34:28.817Z,14.00
2023-04-16T10:36:56.181Z,14.20
2023-04-16T10:39:27.343Z,14.40
2023-04-16T10:42:11.733Z,14.60
2023-04-16T10:44:42.028Z,14.80
2023-04-16T10:47:13.259Z,14.90
2023-04-16T10:49:41.570Z,15.00
2023-04-16T10:52:19.626Z,15.10
2023-04-16T10:54:50.234Z,15.20
2023-04-16T10:57:19.987Z,15.30
2023-04-16T10:59:49.309Z,15.50
2023-04-16T11:02:19.229Z,15.60
2023-04-16T11:04:50.042Z,15.60
2023-04-16T11:07:20.920Z,15.50
2023-04-16T11:10:04.236Z,15.30
2023-04-16T11:12:39.057Z,15.10
2023-04-16T11:15:12.288Z,14.90
2023-04-16T11:17:39.408Z,14.90
2023-04-16T11:20:18.826Z,14.80
2023-04-16T11:22:57.433Z,14.80
2023-04-16T11:25:30.132Z,14.70
2023-04-16T11:28:02.249Z,14.70
2023-04-16T11:30:38.073Z,14.70
2023-04-16T11:33:11.238Z,14.80
2023-04-16T11:35:39.771Z,14.90
2023-04-16T11:38:07.310Z,15.20
2023-04-16T11:40:35.883Z,15.70
2023-04-16T11:43:13.060Z,16.00
2023-04-16T11:45:53.429Z,16.20
2023-04-16T11:48:21.244Z,16.30
2023-04-16T11:50:58.935Z,16.50
2023-04-16T11:53:30.981Z,16.70
2023-04-16T11:55:58.008Z,16.80
2023-04-16T11:58:25.180Z,16.80
2023-04-16T12:00:56.810Z,16.70
2023-04-16T12:03:46.990Z,16.70
2023-04-16T12:06:14.251Z,16.60
2023-04-16T12:08:41.141Z,16.50
2023-04-16T12:11:10.552Z,16.40
2023-04-16T12:13:39.840Z,16.30
2023-04-16T12:16:19.867Z,16.20
2023-04-16T12:19:06.399Z,16.10
2023-04-16T12:21:46.313Z,16.10
2023-04-16T12:24:16.701Z,16.00
2023-04-16T12:26:46.935Z,16.10
2023-04-16T12:29:25.081Z,16.20
2023-04-16T12:31:53.732Z,16.40
2023-04-16T12:34:22.040Z,16.40
2023-04-16T12:37:12.334Z,16.30
2023-04-16T12:39:39.415Z,16.10
2023-04-16T12:42:09.755Z,16.00
2023-04-16T12:44:39.118Z,15.90
2023-04-16T12:47:06.314Z,15.80
2023-04-16T12:49:33.443Z,15.70
2023-04-16T12:52:02.346Z,15.70
2023-04-16T12:54:31.204Z,15.60
2023-04-16T12:56:58.241Z,15.60
2023-04-16T12:59:25.329Z,15.60
2023-04-16T13:01:52.246Z,15.60
2023-04-16T13:04:22.045Z,15.50
2023-04-16T13:06:50.547Z,15.50
2023-04-16T13:09:18.281Z,15.50
2023-04-16T13:11:45.509Z,15.40
2023-04-16T13:14:12.229Z,15.40
2023-04-16T13:16:38.964Z,15.40
2023-04-16T13:19:05.743Z,15.50
2023-04-16T13:21:33.728Z,15.50
2023-04-16T13:24:00.582Z,15.40
2023-04-16T13:26:27.428Z,15.40
2023-04-16T13:28:54.569Z,15.40
2023-04-16T13:31:22.249Z,15.40
2023-04-16T13:33:50.546Z,15.40
2023-04-16T13:36:17.394Z,15.50
2023-04-16T13:38:44.339Z,15.60
2023-04-16T13:41:11.069Z,15.80
2023-04-16T13:43:37.845Z,16.00
2023-04-16T13:46:04.780Z,16.00
2023-04-16T13:48:35.027Z,16.10
2023-04-16T13:51:03.526Z,16.10
2023-04-16T13:53:30.702Z,16.10
2023-04-16T13:55:57.727Z,16.10
2023-04-16T13:58:24.903Z,16.00
2023-04-16T14:00:52.175Z,16.00
2023-04-16T14:03:20.731Z,16.00
2023-04-16T14:05:47.711Z,15.90
2023-04-16T14:08:16.325Z,15.90
2023-04-16T14:10:43.345Z,15.80
2023-04-16T14:13:13.646Z,15.80
2023-04-16T14:15:40.609Z,15.70
2023-04-16T14:18:07.682Z,15.70
2023-04-16T14:20:35.102Z,15.80
2023-04-16T14:23:02.066Z,15.70
2023-04-16T14:25:29.318Z,15.70
2023-04-16T14:27:56.207Z,15.80
2023-04-16T14:30:26.352Z,15.80
2023-04-16T14:32:53.668Z,16.00
2023-04-16T14:35:20.846Z,16.00
2023-04-16T14:37:47.843Z,16.10
2023-04-16T14:40:15.125Z,16.00
2023-04-16T14:42:42.148Z,15.90
2023-04-16T14:45:09.684Z,15.90
2023-04-16T14:47:38.058Z,15.80
2023-04-16T14:50:06.482Z,15.80
2023-04-16T14:52:33.488Z,15.80
2023-04-16T14:55:00.427Z,15.70
2023-04-16T14:57:27.411Z,15.70
2023-04-16T14:59:54.252Z,15.70
2023-04-16T15:02:22.484Z,15.90
2023-04-16T15:04:49.645Z,16.10
2023-04-16T15:07:17.024Z,16.40
2023-04-16T15:09:44.267Z,16.60
2023-04-16T15:12:11.035Z,16.80
2023-04-16T15:14:37.810Z,16.90
2023-04-16T15:17:04.746Z,17.10
2023-04-16T15:19:31.700Z,17.00
2023-04-16T15:21:59.311Z,16.90
2023-04-16T15:24:26.398Z,16.80
2023-04-16T15:26:53.346Z,16.60
2023-04-16T15:29:20.219Z,16.40
2023-04-16T15:31:48.053Z,16.30
2023-04-16T15:34:14.921Z,16.10
2023-04-16T15:36:42.297Z,16.00
2023-04-16T15:42:20.225Z,16.00
2023-04-16T15:44:47.096Z,16.00
2023-04-16T15:47:14.018Z,15.90
2023-04-16T15:49:41.996Z,15.90
2023-04-16T15:52:14.642Z,15.80
2023-04-16T15:54:56.053Z,15.60
2023-04-16T15:57:40.859Z,15.30
2023-04-16T16:00:16.280Z,15.10
2023-04-16T16:11:16.999Z,14.50
2023-04-16T16:13:43.847Z,14.30
2023-04-16T16:16:11.680Z,14.30
2023-04-16T16:18:39.660Z,14.20
2023-04-16T16:21:07.667Z,14.10
2023-04-16T16:23:34.940Z,14.00
2023-04-16T16:26:02.290Z,13.90
2023-04-16T16:28:29.253Z,13.90
2023-04-16T16:30:58.741Z,13.80
2023-04-16T16:33:27.987Z,13.70
2023-04-16T16:35:55.305Z,13.70
2023-04-16T16:38:24.718Z,13.60
2023-04-16T16:40:52.140Z,13.50
2023-04-16T16:43:19.561Z,13.50
2023-04-16T16:45:47.247Z,13.40
2023-04-16T16:53:43.400Z,13.30
2023-04-16T16:56:10.967Z,13.20
2023-04-16T16:58:41.780Z,13.20
2023-04-16T17:01:08.960Z,13.20
2023-04-16T17:03:49.060Z,13.20
2023-04-16T17:06:16.240Z,13.10
2023-04-16T17:08:47.673Z,13.10
2023-04-16T17:11:17.668Z,13.10
2023-04-16T17:13:44.711Z,13.10
2023-04-16T17:16:13.227Z,13.10
2023-04-16T17:18:40.810Z,13.10
2023-04-16T17:21:07.687Z,13.00
2023-04-16T17:23:34.544Z,13.00
2023-04-16T17:26:09.471Z,13.00
2023-04-16T17:28:36.409Z,13.00
2023-04-16T17:33:45.290Z,13.00
2023-04-16T17:36:12.806Z,12.90
2023-04-16T17:38:40.096Z,12.90
2023-04-16T17:41:07.267Z,12.90
2023-04-16T17:43:34.763Z,12.80
2023-04-16T17:46:01.833Z,12.80
2023-04-16T17:48:28.887Z,12.80
2023-04-16T17:50:56.002Z,12.80
2023-04-16T17:53:23.092Z,12.70
2023-04-16T17:55:56.036Z,12.70
2023-04-16T17:58:27.516Z,12.70
2023-04-16T18:00:54.577Z,12.60
2023-04-16T18:03:22.238Z,12.70
2023-04-16T18:05:49.561Z,12.60
2023-04-16T18:08:17.059Z,12.60
2023-04-16T18:10:46.580Z,12.60
2023-04-16T18:13:14.502Z,12.60
2023-04-16T18:16:08.611Z,12.50
2023-04-16T18:18:38.539Z,12.50
2023-04-16T18:21:07.402Z,12.50
2023-04-16T18:23:37.112Z,12.40
2023-04-16T18:26:11.053Z,12.40
2023-04-16T18:28:38.738Z,12.40
2023-04-16T18:31:07.837Z,12.30
2023-04-16T18:34:02.350Z,12.30
2023-04-16T18:36:29.331Z,12.30
2023-04-16T18:39:02.166Z,12.30
2023-04-16T18:41:31.194Z,12.20
2023-04-16T18:43:58.174Z,12.20
2023-04-16T18:46:25.411Z,12.20
2023-04-16T18:48:52.448Z,12.20
2023-04-16T18:51:19.589Z,12.10
2023-04-16T18:53:46.448Z,12.10
2023-04-16T18:56:13.515Z,12.10
2023-04-16T18:58:40.398Z,12.10
2023-04-16T19:01:11.294Z,12.10
2023-04-16T19:03:38.735Z,12.10
2023-04-16T19:06:06.273Z,12.10
2023-04-16T19:08:33.484Z,12.10
2023-04-16T19:11:03.498Z,12.10
2023-04-16T19:13:32.278Z,12.00
2023-04-16T19:16:01.048Z,12.00
2023-04-16T19:18:56.323Z,12.00
2023-04-16T19:21:23.298Z,12.00
2023-04-16T19:23:50.724Z,12.00
2023-04-16T19:26:17.954Z,12.00
2023-04-16T19:28:45.715Z,12.00
2023-04-16T19:31:12.736Z,11.90
2023-04-16T19:33:41.035Z,11.90
2023-04-16T19:36:08.111Z,11.80
2023-04-16T19:38:35.096Z,11.80
2023-04-16T19:41:02.481Z,11.80
2023-04-16T19:43:32.011Z,11.80
2023-04-16T19:45:59.374Z,11.70
2023-04-16T19:48:26.522Z,11.70
2023-04-16T19:50:53.509Z,11.70
2023-04-16T19:53:21.345Z,11.70
2023-04-16T19:55:48.304Z,11.70
2023-04-16T19:58:15.317Z,11.70
2023-04-16T20:00:42.476Z,11.60
2023-04-16T20:03:09.782Z,11.60
2023-04-16T20:05:50.257Z,11.60
2023-04-16T20:08:17.258Z,11.60
2023-04-16T20:10:44.267Z,11.60
2023-04-16T20:13:12.213Z,11.50
2023-04-16T20:15:41.924Z,11.50
2023-04-16T20:18:08.942Z,11.50
2023-04-16T20:20:40.122Z,11.40
2023-04-16T20:23:11.477Z,11.40
2023-04-16T20:25:46.336Z,11.40
2023-04-16T20:28:16.099Z,11.40
2023-04-16T20:30:42.974Z,11.30
2023-04-16T20:33:09.899Z,11.30
2023-04-16T20:35:36.864Z,11.40
2023-04-16T20:38:04.236Z,11.30
2023-04-16T20:40:31.518Z,11.30
2023-04-16T20:43:02.820Z,11.30
2023-04-16T20:45:37.954Z,11.20
2023-04-16T20:48:05.558Z,11.20
2023-04-16T20:50:50.072Z,11.20
2023-04-16T20:53:29.849Z,11.20
2023-04-16T20:55:57.049Z,11.10
2023-04-16T20:58:24.489Z,11.10
2023-04-16T21:00:52.230Z,11.10
2023-04-16T21:03:21.603Z,11.10
2023-04-16T21:05:55.336Z,11.10
2023-04-16T21:08:25.507Z,11.00
2023-04-16T21:10:52.479Z,11.00
2023-04-16T21:13:26.756Z,11.00
2023-04-16T21:15:53.745Z,11.00
2023-04-16T21:18:20.711Z,11.00
2023-04-16T21:20:47.573Z,11.00
2023-04-16T21:23:14.585Z,11.00
2023-04-16T21:25:41.507Z,11.00
2023-04-16T21:28:08.381Z,11.00
2023-04-16T21:30:35.416Z,11.00
2023-04-16T21:33:03.182Z,11.00
2023-04-16T21:35:37.759Z,11.00
2023-04-16T21:38:06.998Z,11.00
2023-04-16T21:40:35.135Z,11.00
2023-04-16T21:43:02.323Z,10.90
2023-04-16T21:45:30.671Z,10.90
2023-04-16T21:47:57.696Z,10.90
2023-04-16T21:50:24.524Z,10.90
2023-04-16T21:52:52.415Z,10.90
2023-04-16T21:55:19.263Z,10.90
2023-04-16T21:57:46.107Z,10.90
2023-04-16T22:00:13.718Z,10.90
2023-04-16T22:02:42.340Z,10.90
2023-04-16T22:05:11.271Z,10.90
2023-04-16T22:07:38.380Z,10.90
2023-04-16T22:10:06.703Z,10.90
2023-04-16T22:12:33.590Z,10.90
2023-04-16T22:15:02.727Z,10.90
2023-04-16T22:17:30.532Z,10.90
2023-04-16T22:20:00.321Z,10.90
2023-04-16T22:22:27.290Z,10.80
2023-04-16T22:24:54.091Z,10.90
2023-04-16T22:27:21.280Z,10.80
2023-04-16T22:29:48.072Z,10.90
2023-04-16T22:32:14.994Z,10.80
2023-04-16T22:34:41.939Z,10.80
2023-04-16T22:37:08.874Z,10.80
2023-04-16T22:39:35.657Z,10.80
2023-04-16T22:42:02.544Z,10.80
2023-04-16T22:44:29.410Z,10.80
2023-04-16T22:46:56.264Z,10.80
2023-04-16T22:49:23.123Z,10.80
2023-04-16T22:51:50.078Z,10.80
2023-04-16T22:54:16.930Z,10.80
2023-04-16T22:56:43.837Z,10.80
2023-04-16T22:59:10.947Z,10.80
2023-04-16T23:01:38.489Z,10.80
2023-04-16T23:04:05.834Z,10.80
2023-04-16T23:06:32.884Z,10.80
2023-04-16T23:09:00.163Z,10.80
2023-04-16T23:11:26.985Z,10.80
2023-04-16T23:13:53.892Z,10.70
2023-04-16T23:16:20.819Z,10.70
2023-04-16T23:18:47.772Z,10.70
2023-04-16T23:21:14.512Z,10.70
2023-04-16T23:23:41.376Z,10.70
2023-04-16T23:26:08.249Z,10.70
2023-04-16T23:28:35.352Z,10.70
2023-04-16T23:31:02.997Z,10.70
2023-04-16T23:33:30.708Z,10.70
2023-04-16T23:35:57.522Z,10.70
2023-04-16T23:38:24.528Z,10.70
2023-04-16T23:40:51.447Z,10.70
2023-04-16T23:43:18.276Z,10.70
2023-04-16T23:45:45.241Z,10.70
2023-04-16T23:48:12.120Z,10.60
2023-04-16T23:50:38.943Z,10.60
2023-04-16T23:53:06.058Z,10.60
2023-04-16T23:55:33.013Z,10.60
2023-04-16T23:58:00.150Z,10.60
